Roanoke — WDD9656 — position and weather

sailwx.info

Track history (hours):
 
Tides and Currents Weather Stations Pressure Air Temp Water Temp Dewpoint Dewpoint Depression Visibility Wind Speed Wind Dir Waves Ship Positions

Roanoke

Owner: Vane Line Bunkering, Baltimore, MD. More information available from US FCC via Universal Licensing System and Coast Guard Vessel Documentation Center.

Last reported at 2015-Jan-26 00:25 UTC. Time now 2015-Jan-26 18:27 UTC.
Position N 38°04' W 076°15'.

Length 32 m; draft 13 m.

Type: Towing. MMSI: 367314510.

Date/timePositionNaut miles runAvg speedWind from/ knotsBaromVisibWave heightAir tempDewpointWater temp
2015-Jan-26 00:25N 38°04' W 076°15'5 0.2
2015-Jan-25 02:32N 37°59' W 076°14'8 7.9
2015-Jan-25 01:28N 38°07' W 076°15'44 7.2
2015-Jan-24 19:21N 38°50' W 076°26'6 7.9
2015-Jan-24 18:33N 38°56' W 076°24'7 7.0
2015-Jan-24 17:30N 39°04' W 076°23'7 7.5
2015-Jan-24 16:31N 39°11' W 076°26'7 7.1
2015-Jan-24 15:32N 39°15' W 076°33'0 0.4
2015-Jan-24 14:33N 39°15' W 076°33'1 0.8
2015-Jan-24 13:26N 39°15' W 076°34'0 0.0
2015-Jan-24 12:33N 39°15' W 076°34'0 0.0
2015-Jan-24 11:27N 39°15' W 076°34'1 0.9
2015-Jan-24 10:33N 39°15' W 076°33'8 7.9
2015-Jan-24 09:32N 39°12' W 076°23'6 0.1
2015-Jan-22 11:17N 39°07' W 076°20'7 8.5
2015-Jan-22 10:29N 39°00' W 076°23'53 7.6
2015-Jan-22 03:29N 38°07' W 076°17'9 0.2
2015-Jan-20 01:21N 37°58' W 076°13'8 9.6
2015-Jan-20 00:33N 38°06' W 076°16'55 9.1
2015-Jan-19 18:33N 39°00' W 076°23'9 9.0
2015-Jan-19 17:32N 39°10' W 076°25'8 7.9
2015-Jan-19 16:33N 39°14' W 076°33'1 1.2
2015-Jan-19 15:32N 39°16' W 076°33'0 0.0
2015-Jan-19 14:33N 39°16' W 076°33'0 0.0
2015-Jan-19 13:33N 39°16' W 076°33'1 1.1
2015-Jan-19 12:33N 39°15' W 076°34'0 0.0
2015-Jan-19 11:31N 39°15' W 076°34'0 0.0
2015-Jan-19 08:20N 39°15' W 076°34'0 0.0
2015-Jan-19 07:26N 39°15' W 076°34'0 0.0
2015-Jan-19 06:24N 39°15' W 076°34'0 0.0
2015-Jan-19 05:33N 39°15' W 076°34'0 0.0
2015-Jan-19 04:31N 39°15' W 076°34'0 0.0
2015-Jan-19 03:31N 39°15' W 076°34'0 0.0
2015-Jan-19 02:29N 39°15' W 076°34'0 0.0
2015-Jan-19 01:33N 39°15' W 076°34'0 0.0
2015-Jan-19 00:33N 39°15' W 076°34'0 0.0
2015-Jan-18 23:31N 39°15' W 076°34'0 0.0
2015-Jan-18 22:32N 39°15' W 076°34'0 0.0
2015-Jan-18 21:32N 39°15' W 076°34'0 0.0
2015-Jan-18 20:33N 39°15' W 076°34'0 0.0
2015-Jan-18 19:31N 39°15' W 076°34'0 0.0
2015-Jan-18 18:25N 39°15' W 076°34'0 0.0
2015-Jan-18 17:26N 39°15' W 076°34'0 0.0
2015-Jan-18 16:33N 39°15' W 076°34'0 0.0
2015-Jan-18 14:31N 39°15' W 076°34'0 0.0
2015-Jan-18 13:26N 39°15' W 076°34'0 0.0
2015-Jan-18 12:32N 39°15' W 076°34'0 0.0
2015-Jan-18 11:33N 39°15' W 076°34'0 0.0
2015-Jan-18 10:31N 39°15' W 076°34'0 0.0
2015-Jan-18 09:32N 39°15' W 076°34'0 0.0
2015-Jan-18 08:32N 39°15' W 076°34'0 0.0
2015-Jan-18 07:33N 39°15' W 076°34'0 0.0
2015-Jan-18 06:33N 39°15' W 076°34'0 0.0
2015-Jan-18 05:32N 39°15' W 076°34'0 0.0
2015-Jan-18 04:32N 39°15' W 076°34'0 0.0
2015-Jan-18 03:33N 39°15' W 076°34'0 0.0
2015-Jan-18 02:33N 39°15' W 076°34'0 0.0
2015-Jan-18 01:31N 39°15' W 076°34'0 0.0
2015-Jan-18 00:31N 39°15' W 076°34'0 0.0
2015-Jan-17 23:32N 39°15' W 076°34'0 0.0
2015-Jan-17 22:33N 39°15' W 076°34'0 0.0
2015-Jan-17 21:33N 39°15' W 076°34'0 0.0
2015-Jan-17 20:31N 39°15' W 076°34'0 0.0
2015-Jan-17 19:32N 39°15' W 076°34'0 0.0
2015-Jan-17 18:32N 39°15' W 076°34'0 0.0
2015-Jan-17 17:15N 39°15' W 076°34'0 0.0
2015-Jan-17 16:25N 39°15' W 076°34'0 0.0
2015-Jan-17 15:32N 39°15' W 076°34'0 0.0
2015-Jan-17 14:32N 39°15' W 076°34'0 0.0
2015-Jan-17 13:33N 39°15' W 076°34'1 1.1
2015-Jan-17 12:31N 39°16' W 076°33'0 0.0
2015-Jan-17 11:31N 39°16' W 076°33'0 0.0
2015-Jan-17 10:32N 39°16' W 076°33'0 0.0
2015-Jan-17 09:33N 39°16' W 076°33'0 0.0
2015-Jan-17 08:33N 39°16' W 076°33'0 0.0
2015-Jan-17 07:31N 39°16' W 076°33'0 0.0
2015-Jan-17 06:32N 39°16' W 076°33'0 0.0
2015-Jan-17 05:32N 39°16' W 076°33'7 7.6
2015-Jan-17 04:33N 39°11' W 076°26'  
Track history (hours):
 
Tides and Currents Weather Stations Pressure Air Temp Water Temp Dewpoint Dewpoint Depression Visibility Wind Speed Wind Dir Waves Ship Positions

Roanoke

Owner: Vane Line Bunkering, Baltimore, MD. More information available from US FCC via Universal Licensing System and Coast Guard Vessel Documentation Center.

Last reported at 2015-Jan-26 00:25 UTC. Time now 2015-Jan-26 18:27 UTC.
Position N 38°04' W 076°15'.

Length 32 m; draft 13 m.

Type: Towing. MMSI: 367314510.

Date/timePositionNaut miles runAvg speedWind from/ knotsBaromVisibWave heightAir tempDewpointWater temp
2015-Jan-26 00:25N 38°04' W 076°15'5 0.2
2015-Jan-25 02:32N 37°59' W 076°14'8 7.9
2015-Jan-25 01:28N 38°07' W 076°15'44 7.2
2015-Jan-24 19:21N 38°50' W 076°26'6 7.9
2015-Jan-24 18:33N 38°56' W 076°24'7 7.0
2015-Jan-24 17:30N 39°04' W 076°23'7 7.5
2015-Jan-24 16:31N 39°11' W 076°26'7 7.1
2015-Jan-24 15:32N 39°15' W 076°33'0 0.4
2015-Jan-24 14:33N 39°15' W 076°33'1 0.8
2015-Jan-24 13:26N 39°15' W 076°34'0 0.0
2015-Jan-24 12:33N 39°15' W 076°34'0 0.0
2015-Jan-24 11:27N 39°15' W 076°34'1 0.9
2015-Jan-24 10:33N 39°15' W 076°33'8 7.9
2015-Jan-24 09:32N 39°12' W 076°23'6 0.1
2015-Jan-22 11:17N 39°07' W 076°20'7 8.5
2015-Jan-22 10:29N 39°00' W 076°23'53 7.6
2015-Jan-22 03:29N 38°07' W 076°17'9 0.2
2015-Jan-20 01:21N 37°58' W 076°13'8 9.6
2015-Jan-20 00:33N 38°06' W 076°16'55 9.1
2015-Jan-19 18:33N 39°00' W 076°23'9 9.0
2015-Jan-19 17:32N 39°10' W 076°25'8 7.9
2015-Jan-19 16:33N 39°14' W 076°33'1 1.2
2015-Jan-19 15:32N 39°16' W 076°33'0 0.0
2015-Jan-19 14:33N 39°16' W 076°33'0 0.0
2015-Jan-19 13:33N 39°16' W 076°33'1 1.1
2015-Jan-19 12:33N 39°15' W 076°34'0 0.0
2015-Jan-19 11:31N 39°15' W 076°34'0 0.0
2015-Jan-19 08:20N 39°15' W 076°34'0 0.0
2015-Jan-19 07:26N 39°15' W 076°34'0 0.0
2015-Jan-19 06:24N 39°15' W 076°34'0 0.0
2015-Jan-19 05:33N 39°15' W 076°34'0 0.0
2015-Jan-19 04:31N 39°15' W 076°34'0 0.0
2015-Jan-19 03:31N 39°15' W 076°34'0 0.0
2015-Jan-19 02:29N 39°15' W 076°34'0 0.0
2015-Jan-19 01:33N 39°15' W 076°34'0 0.0
2015-Jan-19 00:33N 39°15' W 076°34'0 0.0
2015-Jan-18 23:31N 39°15' W 076°34'0 0.0
2015-Jan-18 22:32N 39°15' W 076°34'0 0.0
2015-Jan-18 21:32N 39°15' W 076°34'0 0.0
2015-Jan-18 20:33N 39°15' W 076°34'0 0.0
2015-Jan-18 19:31N 39°15' W 076°34'0 0.0
2015-Jan-18 18:25N 39°15' W 076°34'0 0.0
2015-Jan-18 17:26N 39°15' W 076°34'0 0.0
2015-Jan-18 16:33N 39°15' W 076°34'0 0.0
2015-Jan-18 14:31N 39°15' W 076°34'0 0.0
2015-Jan-18 13:26N 39°15' W 076°34'0 0.0
2015-Jan-18 12:32N 39°15' W 076°34'0 0.0
2015-Jan-18 11:33N 39°15' W 076°34'0 0.0
2015-Jan-18 10:31N 39°15' W 076°34'0 0.0
2015-Jan-18 09:32N 39°15' W 076°34'0 0.0
2015-Jan-18 08:32N 39°15' W 076°34'0 0.0
2015-Jan-18 07:33N 39°15' W 076°34'0 0.0
2015-Jan-18 06:33N 39°15' W 076°34'0 0.0
2015-Jan-18 05:32N 39°15' W 076°34'0 0.0
2015-Jan-18 04:32N 39°15' W 076°34'0 0.0
2015-Jan-18 03:33N 39°15' W 076°34'0 0.0
2015-Jan-18 02:33N 39°15' W 076°34'0 0.0
2015-Jan-18 01:31N 39°15' W 076°34'0 0.0
2015-Jan-18 00:31N 39°15' W 076°34'0 0.0
2015-Jan-17 23:32N 39°15' W 076°34'0 0.0
2015-Jan-17 22:33N 39°15' W 076°34'0 0.0
2015-Jan-17 21:33N 39°15' W 076°34'0 0.0
2015-Jan-17 20:31N 39°15' W 076°34'0 0.0
2015-Jan-17 19:32N 39°15' W 076°34'0 0.0
2015-Jan-17 18:32N 39°15' W 076°34'0 0.0
2015-Jan-17 17:15N 39°15' W 076°34'0 0.0
2015-Jan-17 16:25N 39°15' W 076°34'0 0.0
2015-Jan-17 15:32N 39°15' W 076°34'0 0.0
2015-Jan-17 14:32N 39°15' W 076°34'0 0.0
2015-Jan-17 13:33N 39°15' W 076°34'1 1.1
2015-Jan-17 12:31N 39°16' W 076°33'0 0.0
2015-Jan-17 11:31N 39°16' W 076°33'0 0.0
2015-Jan-17 10:32N 39°16' W 076°33'0 0.0
2015-Jan-17 09:33N 39°16' W 076°33'0 0.0
2015-Jan-17 08:33N 39°16' W 076°33'0 0.0
2015-Jan-17 07:31N 39°16' W 076°33'0 0.0
2015-Jan-17 06:32N 39°16' W 076°33'0 0.0
2015-Jan-17 05:32N 39°16' W 076°33'7 7.6
2015-Jan-17 04:33N 39°11' W 076°26'  

Dump ship's entire track history